createdAt,value
2019-06-20T00:00:30.977Z,83.66
2019-06-20T00:01:30.986Z,84.68
2019-06-20T00:02:31.000Z,85.55
2019-06-20T00:03:30.998Z,86.38
2019-06-20T00:04:30.968Z,86.18
2019-06-20T00:05:30.981Z,86.86
2019-06-20T00:06:31.044Z,85.84
2019-06-20T00:07:30.995Z,85.89
2019-06-20T00:08:30.985Z,86.57
2019-06-20T00:09:39.738Z,87.92
2019-06-20T00:11:55.598Z,87.34
2019-06-20T00:12:59.542Z,86.96
2019-06-20T00:13:55.520Z,86.47
2019-06-20T00:16:01.416Z,86.76
2019-06-20T00:17:00.096Z,86.38
2019-06-20T00:18:54.863Z,86.57
2019-06-20T00:19:44.928Z,88.07
2019-06-20T00:20:44.820Z,89.03
2019-06-20T00:21:44.796Z,88.07
2019-06-20T00:22:44.817Z,87.97
2019-06-20T00:23:44.782Z,86.38
2019-06-20T00:24:44.815Z,87.97
2019-06-20T00:25:44.789Z,88.07
2019-06-20T00:26:44.801Z,86.96
2019-06-20T00:27:44.882Z,87.82
2019-06-20T00:28:44.797Z,86.76
2019-06-20T00:29:45.682Z,87.73
2019-06-20T00:30:44.888Z,88.84
2019-06-20T00:31:44.813Z,88.89
2019-06-20T00:32:44.810Z,89.13
2019-06-20T00:33:44.829Z,87.44
2019-06-20T00:34:44.821Z,86.96
2019-06-20T00:35:53.563Z,86.38
2019-06-20T00:37:49.362Z,88.07
2019-06-20T00:38:49.368Z,88.07
2019-06-20T00:39:49.353Z,89.03
2019-06-20T00:40:49.348Z,89.61
2019-06-20T00:41:49.397Z,89.90
2019-06-20T00:42:49.350Z,89.61
2019-06-20T00:43:49.317Z,89.90
2019-06-20T00:44:49.339Z,89.42
2019-06-20T00:45:49.325Z,88.02
2019-06-20T00:46:49.421Z,88.50
2019-06-20T00:47:49.390Z,88.11
2019-06-20T00:48:58.043Z,87.34
2019-06-20T00:50:53.909Z,88.75
2019-06-20T00:51:53.879Z,89.42
2019-06-20T00:52:53.840Z,87.92
2019-06-20T00:53:53.861Z,87.01
2019-06-20T00:54:53.879Z,87.92
2019-06-20T00:55:53.912Z,87.82
2019-06-20T00:56:53.865Z,87.73
2019-06-20T00:57:53.884Z,86.96
2019-06-20T00:58:53.860Z,87.44
2019-06-20T00:59:53.869Z,90.09
2019-06-20T01:00:53.922Z,93.33
2019-06-20T01:01:53.877Z,93.33
2019-06-20T01:02:53.865Z,94.15
2019-06-20T01:04:02.598Z,95.79
2019-06-20T01:05:58.435Z,94.06
2019-06-20T01:07:07.067Z,94.63
2019-06-20T01:09:00.894Z,96.66
2019-06-20T01:11:41.366Z,99.02
2019-06-20T01:12:31.349Z,99.88
2019-06-20T01:13:34.122Z,98.54
2019-06-20T01:14:31.342Z,97.42
2019-06-20T01:15:31.373Z,97.04
2019-06-20T01:16:31.506Z,96.37
2019-06-20T01:17:31.328Z,96.37
2019-06-20T01:18:31.335Z,96.66
2019-06-20T01:19:31.333Z,95.79
2019-06-20T01:20:31.372Z,96.75
2019-06-20T01:21:31.324Z,97.42
2019-06-20T01:22:31.374Z,96.94
2019-06-20T01:23:31.331Z,96.89
2019-06-20T01:24:31.384Z,96.61
2019-06-20T01:25:31.392Z,96.99
2019-06-20T01:26:31.346Z,97.24
2019-06-20T01:27:31.349Z,97.42
2019-06-20T01:28:31.349Z,97.91
2019-06-20T01:29:31.371Z,98.29
2019-06-20T01:30:31.399Z,97.81
2019-06-20T01:31:31.408Z,98.68
2019-06-20T01:32:31.410Z,98.34
2019-06-20T01:33:31.391Z,98.82
2019-06-20T01:34:31.410Z,97.76
2019-06-20T01:35:31.360Z,98.54
2019-06-20T01:36:31.412Z,98.10
2019-06-20T01:37:31.364Z,98.00
2019-06-20T01:38:31.367Z,98.10
2019-06-20T01:39:31.392Z,97.42
2019-06-20T01:40:31.440Z,97.38
2019-06-20T01:41:31.410Z,98.44
2019-06-20T01:42:31.443Z,97.67
2019-06-20T01:43:31.384Z,96.17
2019-06-20T01:44:31.410Z,95.98
2019-06-20T01:45:31.389Z,97.42
2019-06-20T01:46:31.417Z,97.62
2019-06-20T01:47:31.391Z,97.57
2019-06-20T01:48:31.422Z,98.63
2019-06-20T01:49:31.499Z,97.76
2019-06-20T01:50:31.416Z,96.75
2019-06-20T01:51:31.489Z,96.94
2019-06-20T01:52:31.462Z,97.09
2019-06-20T01:53:31.420Z,96.70
2019-06-20T01:54:31.426Z,96.51
2019-06-20T01:55:31.465Z,97.67
2019-06-20T01:56:31.440Z,96.32
2019-06-20T01:57:31.447Z,96.32
2019-06-20T01:58:31.500Z,96.99
2019-06-20T01:59:31.497Z,97.57
2019-06-20T02:00:40.326Z,97.24
2019-06-20T02:02:36.343Z,97.52
2019-06-20T02:03:44.811Z,97.42
2019-06-20T02:06:01.134Z,97.33
2019-06-20T02:07:00.592Z,97.67
2019-06-20T02:08:46.419Z,96.22
2019-06-20T02:09:46.597Z,96.08
2019-06-20T02:10:46.492Z,95.79
2019-06-20T02:11:46.208Z,94.06
2019-06-20T02:12:46.345Z,92.27
2019-06-20T02:13:46.405Z,91.60
2019-06-20T02:14:55.620Z,91.50
2019-06-20T02:16:51.137Z,91.20
2019-06-20T02:19:31.443Z,91.20
2019-06-20T02:22:03.545Z,90.92
2019-06-20T02:23:12.244Z,90.44
2019-06-20T02:25:16.947Z,92.17
2019-06-20T02:27:41.128Z,90.15
2019-06-20T02:28:41.132Z,90.63
2019-06-20T02:29:41.116Z,91.64
2019-06-20T02:30:41.041Z,91.74
2019-06-20T02:31:41.056Z,91.98
2019-06-20T02:32:41.048Z,92.13
2019-06-20T02:33:41.091Z,92.03
2019-06-20T02:34:41.061Z,92.41
2019-06-20T02:35:41.092Z,91.69
2019-06-20T02:36:41.069Z,90.15
2019-06-20T02:37:41.073Z,88.84
2019-06-20T02:38:41.094Z,88.07
2019-06-20T02:39:41.124Z,87.68
2019-06-20T02:40:41.105Z,87.49
2019-06-20T02:41:41.078Z,87.30
2019-06-20T02:42:41.110Z,88.36
2019-06-20T02:43:41.098Z,88.41
2019-06-20T02:44:41.096Z,88.65
2019-06-20T02:45:41.087Z,88.75
2019-06-20T02:46:41.091Z,88.84
2019-06-20T02:47:41.118Z,87.49
2019-06-20T02:48:41.126Z,86.52
2019-06-20T02:49:41.238Z,86.52
2019-06-20T02:50:41.132Z,88.07
2019-06-20T02:51:41.164Z,90.24
2019-06-20T02:52:41.158Z,90.05
2019-06-20T02:53:41.154Z,89.09
2019-06-20T02:54:41.150Z,90.53
2019-06-20T02:55:41.166Z,91.20
2019-06-20T02:56:41.122Z,91.50
2019-06-20T02:57:41.144Z,91.69
2019-06-20T02:58:41.195Z,90.44
2019-06-20T02:59:41.180Z,91.30
2019-06-20T03:00:41.306Z,92.03
2019-06-20T03:01:41.191Z,93.28
2019-06-20T03:02:41.205Z,93.09
2019-06-20T03:03:41.326Z,92.32
2019-06-20T03:04:41.179Z,92.61
2019-06-20T03:05:41.205Z,93.09
2019-06-20T03:06:41.156Z,92.41
2019-06-20T03:07:41.140Z,93.09
2019-06-20T03:08:41.206Z,93.28
2019-06-20T03:11:23.428Z,93.09
2019-06-20T03:12:23.038Z,91.78
2019-06-20T03:14:18.984Z,89.61
2019-06-20T03:15:18.842Z,91.02
2019-06-20T03:16:18.890Z,91.40
2019-06-20T03:17:18.836Z,91.69
2019-06-20T03:18:18.849Z,92.51
2019-06-20T03:19:18.862Z,93.96
2019-06-20T03:20:18.900Z,93.76
2019-06-20T03:21:19.796Z,93.86
2019-06-20T03:22:18.869Z,93.62
2019-06-20T03:23:18.952Z,94.15
2019-06-20T03:24:18.873Z,93.33
2019-06-20T03:25:18.860Z,92.08
2019-06-20T03:26:18.849Z,93.48
2019-06-20T03:27:18.862Z,94.82
2019-06-20T03:28:18.899Z,95.98
2019-06-20T03:29:18.901Z,95.40
2019-06-20T03:30:18.865Z,96.37
2019-06-20T03:31:18.887Z,96.75
2019-06-20T03:32:18.947Z,95.89
2019-06-20T03:33:18.924Z,95.69
2019-06-20T03:34:18.879Z,93.52
2019-06-20T03:35:18.874Z,92.65
2019-06-20T03:36:18.880Z,92.75
2019-06-20T03:37:18.933Z,93.13
2019-06-20T03:38:18.917Z,91.98
2019-06-20T03:39:19.022Z,93.33
2019-06-20T03:40:18.893Z,93.71
2019-06-20T03:41:18.934Z,93.04
2019-06-20T03:42:18.962Z,94.15
2019-06-20T03:43:18.887Z,94.82
2019-06-20T03:44:18.898Z,94.34
2019-06-20T03:45:18.905Z,95.31
2019-06-20T03:46:18.916Z,94.68
2019-06-20T03:47:18.930Z,93.52
2019-06-20T03:48:18.935Z,93.04
2019-06-20T03:49:18.972Z,93.13
2019-06-20T03:50:18.915Z,94.68
2019-06-20T03:51:18.986Z,94.68
2019-06-20T03:52:18.938Z,94.48
2019-06-20T03:53:18.944Z,94.87
2019-06-20T03:54:18.915Z,95.54
2019-06-20T03:55:19.755Z,95.54
2019-06-20T03:56:19.015Z,96.56
2019-06-20T03:57:18.967Z,97.42
2019-06-20T03:58:19.025Z,97.42
2019-06-20T03:59:19.002Z,97.24
2019-06-20T04:00:19.033Z,95.74
2019-06-20T04:01:18.992Z,95.84
2019-06-20T04:02:19.043Z,95.54
2019-06-20T04:03:18.981Z,95.06
2019-06-20T04:04:19.020Z,94.58
2019-06-20T04:05:18.987Z,93.18
2019-06-20T04:06:18.950Z,94.00
2019-06-20T04:07:19.041Z,95.16
2019-06-20T04:08:19.005Z,95.64
2019-06-20T04:09:19.047Z,94.10
2019-06-20T04:24:51.380Z,95.93
2019-06-20T04:26:01.064Z,95.26
2019-06-20T04:28:06.706Z,95.26
2019-06-20T04:28:56.391Z,96.51
2019-06-20T04:29:56.459Z,96.22
2019-06-20T04:30:56.230Z,94.87
2019-06-20T04:31:56.536Z,96.70
2019-06-20T04:33:05.351Z,97.62
2019-06-20T04:35:00.992Z,97.42
2019-06-20T04:36:00.904Z,97.42
2019-06-20T04:37:00.904Z,98.20
2019-06-20T04:38:00.748Z,98.49
2019-06-20T04:39:00.775Z,99.55
2019-06-20T04:40:00.772Z,98.87
2019-06-20T04:41:00.668Z,98.49
2019-06-20T04:42:00.735Z,98.10
2019-06-20T04:43:00.718Z,98.68
2019-06-20T04:44:00.668Z,98.68
2019-06-20T04:45:00.677Z,98.10
2019-06-20T04:46:00.724Z,97.42
2019-06-20T04:47:10.482Z,97.42
2019-06-20T04:48:54.467Z,97.19
2019-06-20T04:49:54.101Z,98.10
2019-06-20T04:50:54.145Z,96.70
2019-06-20T04:51:54.177Z,95.64
2019-06-20T04:52:54.116Z,95.84
2019-06-20T04:53:54.121Z,95.16
2019-06-20T04:54:54.134Z,95.93
2019-06-20T04:55:54.139Z,96.70
2019-06-20T04:56:54.162Z,96.99
2019-06-20T04:57:54.141Z,96.99
2019-06-20T04:58:54.129Z,96.70
2019-06-20T04:59:54.141Z,96.61
2019-06-20T05:00:54.144Z,97.09
2019-06-20T05:01:54.165Z,97.47
2019-06-20T05:02:54.141Z,96.12
2019-06-20T05:03:54.139Z,95.64
2019-06-20T05:04:54.269Z,95.84
2019-06-20T05:06:03.922Z,95.93
2019-06-20T05:07:58.858Z,96.51
2019-06-20T05:09:07.400Z,96.80
2019-06-20T05:11:13.186Z,97.67
2019-06-20T05:12:11.914Z,97.86
2019-06-20T05:14:17.720Z,96.17
2019-06-20T05:15:18.288Z,95.50
2019-06-20T05:17:12.208Z,92.36
2019-06-20T05:18:20.886Z,92.36
2019-06-20T05:20:17.609Z,91.63
2019-06-20T05:21:17.584Z,91.25
2019-06-20T05:22:26.210Z,91.73
2019-06-20T05:24:25.468Z,88.82
2019-06-20T05:25:30.930Z,86.78
2019-06-20T05:27:26.605Z,83.73
2019-06-20T05:28:35.270Z,82.60
2019-06-20T05:30:32.357Z,78.27
2019-06-20T05:31:40.958Z,76.37
2019-06-20T05:33:36.817Z,71.75
2019-06-20T05:34:36.906Z,68.32
2019-06-20T05:35:46.600Z,66.69
2019-06-20T05:37:49.539Z,64.32
2019-06-20T05:38:50.310Z,64.69
2019-06-20T05:40:46.548Z,62.53
2019-06-20T05:41:55.039Z,60.71
2019-06-20T05:44:02.105Z,61.17
2019-06-20T05:45:10.965Z,60.52
2019-06-20T05:47:11.361Z,60.58
2019-06-20T05:48:06.045Z,60.13
2019-06-20T05:50:11.256Z,62.54
2019-06-20T05:51:02.197Z,64.72
2019-06-20T05:52:02.252Z,65.72
2019-06-20T05:53:02.125Z,64.39
2019-06-20T05:54:02.529Z,62.76
2019-06-20T05:55:02.110Z,64.00
2019-06-20T05:56:02.154Z,64.81
2019-06-20T05:57:03.691Z,66.14
2019-06-20T05:58:02.143Z,67.34
2019-06-20T05:59:02.198Z,69.93
2019-06-20T06:00:02.217Z,70.19
2019-06-20T06:01:02.224Z,72.09
2019-06-20T06:02:02.266Z,74.19
2019-06-20T06:03:05.807Z,74.64
2019-06-20T06:04:02.340Z,76.35
2019-06-20T06:05:02.253Z,76.54
2019-06-20T06:06:02.299Z,79.47
2019-06-20T06:07:02.453Z,79.76
2019-06-20T06:08:02.365Z,78.92
2019-06-20T06:09:02.475Z,78.92
2019-06-20T06:10:04.311Z,79.32
2019-06-20T06:11:02.324Z,79.32
2019-06-20T06:12:02.376Z,78.92
2019-06-20T06:13:03.077Z,79.60
2019-06-20T06:14:02.382Z,79.16
2019-06-20T06:15:02.358Z,78.15
2019-06-20T06:16:02.366Z,77.70
2019-06-20T06:17:12.030Z,76.29
2019-06-20T06:18:55.978Z,73.46
2019-06-20T06:19:55.924Z,73.65
2019-06-20T06:20:55.867Z,74.74
2019-06-20T06:21:55.858Z,75.51
2019-06-20T06:22:55.852Z,74.58
2019-06-20T06:23:55.817Z,74.49
2019-06-20T06:24:55.879Z,74.68
2019-06-20T06:25:55.919Z,75.03
2019-06-20T06:26:59.699Z,76.25
2019-06-20T06:27:56.053Z,78.25
2019-06-20T06:28:55.910Z,80.05
2019-06-20T06:29:55.922Z,80.15
2019-06-20T06:30:55.893Z,80.24
2019-06-20T06:31:55.944Z,80.24
2019-06-20T06:32:55.980Z,80.63
2019-06-20T06:33:55.904Z,80.92
2019-06-20T06:34:55.975Z,80.73
2019-06-20T06:35:55.984Z,80.82
2019-06-20T06:36:55.957Z,80.82
2019-06-20T06:37:55.975Z,81.70
2019-06-20T06:38:55.942Z,82.08
2019-06-20T06:39:55.994Z,81.70
2019-06-20T06:40:55.951Z,81.40
2019-06-20T06:41:56.241Z,81.40
2019-06-20T06:42:56.028Z,81.79
2019-06-20T06:43:55.968Z,81.89
2019-06-20T06:44:56.741Z,81.89
2019-06-20T06:45:56.125Z,82.08
2019-06-20T06:46:59.450Z,81.89
2019-06-20T06:47:56.098Z,81.60
2019-06-20T06:48:56.180Z,81.89
2019-06-20T06:49:56.449Z,82.08
2019-06-20T06:50:56.235Z,81.98
2019-06-20T06:53:35.343Z,82.23
2019-06-20T06:54:35.636Z,81.85
2019-06-20T06:55:35.284Z,81.79
2019-06-20T06:56:45.052Z,82.37
2019-06-20T06:58:37.189Z,81.89
2019-06-20T06:59:28.843Z,81.89
2019-06-20T07:00:28.770Z,82.57
2019-06-20T07:01:29.507Z,82.47
2019-06-20T07:02:28.849Z,82.08
2019-06-20T07:03:28.967Z,82.37
2019-06-20T07:04:28.672Z,82.47
2019-06-20T07:05:29.010Z,82.08
2019-06-20T07:06:28.728Z,82.37
2019-06-20T07:07:28.768Z,82.23
2019-06-20T07:08:28.725Z,82.53
2019-06-20T07:09:28.773Z,82.04
2019-06-20T07:10:28.742Z,82.62
2019-06-20T07:11:28.751Z,83.69
2019-06-20T07:12:28.786Z,82.62
2019-06-20T07:13:28.763Z,82.37
2019-06-20T07:14:28.746Z,82.08
2019-06-20T07:15:28.704Z,81.98
2019-06-20T07:16:28.858Z,81.75
2019-06-20T07:17:28.984Z,81.89
2019-06-20T07:18:28.929Z,81.79
2019-06-20T07:19:28.818Z,81.70
2019-06-20T07:20:28.781Z,80.82
2019-06-20T07:21:29.153Z,80.54
2019-06-20T07:22:28.953Z,81.37
2019-06-20T07:23:28.962Z,80.92
2019-06-20T07:24:28.839Z,81.62
2019-06-20T07:25:28.777Z,81.65
2019-06-20T07:26:28.839Z,81.27
2019-06-20T07:27:28.830Z,80.92
2019-06-20T07:28:28.843Z,80.20
2019-06-20T07:29:28.913Z,80.24
2019-06-20T07:30:28.820Z,80.79
2019-06-20T07:31:28.871Z,80.79
2019-06-20T07:32:29.375Z,80.73
2019-06-20T07:33:28.978Z,80.92
2019-06-20T07:34:28.888Z,81.17
2019-06-20T07:35:28.955Z,80.88
2019-06-20T07:36:28.870Z,80.88
2019-06-20T07:37:28.854Z,81.37
2019-06-20T07:38:29.014Z,80.79
2019-06-20T07:39:28.912Z,81.56
2019-06-20T07:40:28.878Z,80.98
2019-06-20T07:41:28.859Z,80.88
2019-06-20T07:42:28.865Z,81.75
2019-06-20T07:43:28.943Z,82.04
2019-06-20T07:44:28.934Z,81.37
2019-06-20T07:45:28.936Z,82.14
2019-06-20T07:46:28.942Z,81.75
2019-06-20T07:47:28.910Z,81.65
2019-06-20T07:48:38.303Z,81.46
2019-06-20T07:50:38.482Z,81.85
2019-06-20T07:51:35.281Z,81.95
2019-06-20T07:52:35.413Z,82.33
2019-06-20T07:53:35.388Z,82.23
2019-06-20T07:54:35.284Z,81.75
2019-06-20T07:55:35.329Z,81.81
2019-06-20T07:56:35.309Z,81.85
2019-06-20T07:57:35.319Z,81.90
2019-06-20T07:58:35.339Z,82.39
2019-06-20T07:59:35.338Z,81.75
2019-06-20T08:00:35.604Z,81.85
2019-06-20T08:01:35.553Z,82.97
2019-06-20T08:02:35.370Z,83.64
2019-06-20T08:03:35.429Z,83.45
2019-06-20T08:04:35.404Z,82.58
2019-06-20T08:05:44.268Z,81.85
2019-06-20T08:07:40.921Z,82.23
2019-06-20T08:08:40.921Z,82.33
2019-06-20T08:09:45.255Z,82.04
2019-06-20T08:10:49.616Z,82.04
2019-06-20T08:12:58.167Z,83.16
2019-06-20T08:13:54.309Z,83.06
2019-06-20T08:15:50.188Z,82.97
2019-06-20T08:16:50.138Z,82.48
2019-06-20T08:17:50.121Z,82.15
2019-06-20T08:18:50.161Z,82.73
2019-06-20T08:19:50.168Z,82.06
2019-06-20T08:20:50.124Z,83.31
2019-06-20T08:21:50.130Z,83.06
2019-06-20T08:22:50.168Z,82.29
2019-06-20T08:23:50.143Z,82.78
2019-06-20T08:24:50.142Z,81.81
2019-06-20T08:25:50.180Z,82.68
2019-06-20T08:27:00.380Z,82.48
2019-06-20T08:28:43.776Z,82.10
2019-06-20T08:29:53.164Z,82.00
2019-06-20T08:31:59.743Z,82.48
2019-06-20T08:32:48.354Z,82.29
2019-06-20T08:33:48.373Z,82.53
2019-06-20T08:34:58.805Z,81.75
2019-06-20T08:36:50.999Z,81.27
2019-06-20T08:37:51.722Z,81.62
2019-06-20T08:39:46.503Z,81.65
2019-06-20T08:40:46.492Z,81.85
2019-06-20T08:41:46.509Z,82.20
2019-06-20T08:42:46.497Z,82.39
2019-06-20T08:43:46.533Z,82.20
2019-06-20T08:44:46.519Z,82.00
2019-06-20T08:45:46.530Z,81.52
2019-06-20T08:46:46.517Z,82.14
2019-06-20T08:47:46.544Z,82.04
2019-06-20T08:48:46.523Z,81.56
2019-06-20T08:49:46.560Z,82.48
2019-06-20T08:50:46.559Z,82.23
2019-06-20T08:51:46.555Z,82.48
2019-06-20T08:52:46.547Z,82.00
2019-06-20T08:53:46.566Z,82.48
2019-06-20T08:54:46.551Z,82.04
2019-06-20T08:55:46.584Z,82.04
2019-06-20T08:56:46.585Z,81.56
2019-06-20T08:57:46.668Z,82.20
2019-06-20T08:58:46.636Z,82.29
2019-06-20T08:59:46.586Z,81.46
2019-06-20T09:00:46.593Z,80.59
2019-06-20T09:01:46.627Z,80.30
2019-06-20T09:02:46.752Z,80.24
2019-06-20T09:03:46.620Z,79.37
2019-06-20T09:04:46.606Z,79.91
2019-06-20T09:05:46.607Z,80.20
2019-06-20T09:06:49.920Z,80.40
2019-06-20T09:07:46.621Z,79.57
2019-06-20T09:08:46.658Z,79.37
2019-06-20T09:09:46.679Z,79.57
2019-06-20T09:10:46.645Z,78.79
2019-06-20T09:11:46.672Z,78.59
2019-06-20T09:12:46.710Z,78.54
2019-06-20T09:13:46.710Z,77.96
2019-06-20T09:14:46.690Z,78.05
2019-06-20T09:15:46.688Z,76.70
2019-06-20T09:16:46.670Z,77.57
2019-06-20T09:17:46.692Z,78.15
2019-06-20T09:18:56.620Z,77.28
2019-06-20T09:22:30.263Z,78.05
2019-06-20T09:23:19.602Z,77.67
2019-06-20T09:24:19.619Z,77.57
2019-06-20T09:25:19.573Z,77.57
2019-06-20T09:26:19.620Z,78.11
2019-06-20T09:27:19.588Z,78.02
2019-06-20T09:28:19.616Z,77.86
2019-06-20T09:29:19.619Z,77.28
2019-06-20T09:30:19.642Z,78.50
2019-06-20T09:31:19.618Z,78.59
2019-06-20T09:32:19.686Z,78.11
2019-06-20T09:33:19.661Z,78.05
2019-06-20T09:34:19.635Z,77.76
2019-06-20T09:35:28.423Z,76.66
2019-06-20T09:37:24.173Z,78.69
2019-06-20T09:38:24.147Z,78.41
2019-06-20T09:39:24.168Z,78.31
2019-06-20T09:40:24.164Z,78.31
2019-06-20T09:41:24.168Z,78.25
2019-06-20T09:42:24.190Z,78.15
2019-06-20T09:43:27.840Z,78.15
2019-06-20T09:44:24.220Z,78.34
2019-06-20T09:45:24.185Z,77.86
2019-06-20T09:46:24.197Z,78.11
2019-06-20T09:47:24.206Z,78.59
2019-06-20T09:48:24.208Z,78.25
2019-06-20T09:49:24.255Z,76.51
2019-06-20T09:50:24.231Z,75.83
2019-06-20T09:51:24.222Z,76.21
2019-06-20T09:52:24.231Z,76.28
2019-06-20T09:53:24.236Z,76.51
2019-06-20T09:54:24.342Z,76.86
2019-06-20T09:55:24.247Z,76.86
2019-06-20T09:56:24.253Z,77.09
2019-06-20T09:57:24.263Z,76.99
2019-06-20T09:58:24.269Z,77.19
2019-06-20T09:59:27.762Z,77.37
2019-06-20T10:00:24.274Z,78.83
2019-06-20T10:01:24.284Z,78.64
2019-06-20T10:02:24.305Z,78.15
2019-06-20T10:03:24.295Z,78.74
2019-06-20T10:04:24.300Z,78.05
2019-06-20T10:05:24.318Z,77.57
2019-06-20T10:06:24.320Z,77.57
2019-06-20T10:07:24.337Z,78.05
2019-06-20T10:08:24.337Z,77.09
2019-06-20T10:09:24.330Z,75.73
2019-06-20T10:10:24.364Z,75.73
2019-06-20T10:11:24.369Z,75.63
2019-06-20T10:12:24.361Z,75.73
2019-06-20T10:13:24.385Z,76.21
2019-06-20T10:14:24.377Z,75.44
2019-06-20T10:15:24.368Z,75.83
2019-06-20T10:16:24.398Z,75.34
2019-06-20T10:17:24.391Z,75.05
2019-06-20T10:18:24.387Z,76.21
2019-06-20T10:19:24.401Z,74.96
2019-06-20T10:20:24.400Z,73.73
2019-06-20T10:21:24.469Z,73.54
2019-06-20T10:22:24.428Z,73.69
2019-06-20T10:23:24.425Z,74.41
2019-06-20T10:24:24.425Z,74.51
2019-06-20T10:25:24.427Z,74.60
2019-06-20T10:26:24.451Z,74.32
2019-06-20T10:27:24.441Z,74.12
2019-06-20T10:28:24.472Z,73.64
2019-06-20T10:29:24.474Z,74.60
2019-06-20T10:30:24.476Z,74.35
2019-06-20T10:31:24.471Z,74.22
2019-06-20T10:32:24.505Z,74.41
2019-06-20T10:33:24.486Z,73.73
2019-06-20T10:34:24.520Z,73.83
2019-06-20T10:35:24.494Z,73.93
2019-06-20T10:36:24.504Z,74.22
2019-06-20T10:37:24.508Z,74.51
2019-06-20T10:38:24.521Z,74.22
2019-06-20T10:39:24.516Z,74.51
2019-06-20T10:40:24.526Z,74.60
2019-06-20T10:41:24.578Z,74.22
2019-06-20T10:42:24.535Z,74.80
2019-06-20T10:43:24.596Z,74.32
2019-06-20T10:44:24.547Z,73.64
2019-06-20T10:45:24.556Z,74.41
2019-06-20T10:46:24.563Z,73.93
2019-06-20T10:47:32.596Z,74.86
2019-06-20T10:48:24.578Z,74.51
2019-06-20T10:49:24.634Z,74.70
2019-06-20T10:50:24.599Z,74.51
2019-06-20T10:51:24.595Z,74.99
2019-06-20T10:52:24.651Z,74.90
2019-06-20T10:53:24.660Z,74.70
2019-06-20T10:54:24.617Z,74.70
2019-06-20T10:55:24.623Z,74.99
2019-06-20T10:56:24.631Z,74.51
2019-06-20T10:57:24.631Z,74.70
2019-06-20T10:58:24.645Z,75.48
2019-06-20T10:59:24.688Z,75.48
2019-06-20T11:00:31.392Z,75.57
2019-06-20T11:01:24.665Z,76.15
2019-06-20T11:02:24.669Z,76.41
2019-06-20T11:03:24.671Z,77.47
2019-06-20T11:04:24.755Z,78.64
2019-06-20T11:05:24.681Z,79.50
2019-06-20T11:06:24.688Z,78.83
2019-06-20T11:07:24.695Z,79.02
2019-06-20T11:08:24.700Z,79.41
2019-06-20T11:09:24.747Z,79.50
2019-06-20T11:10:24.751Z,79.41
2019-06-20T11:11:24.720Z,80.67
2019-06-20T11:12:24.723Z,80.57
2019-06-20T11:13:24.734Z,81.21
2019-06-20T11:14:24.735Z,81.98
2019-06-20T11:15:34.171Z,82.18
2019-06-20T11:17:40.328Z,82.41
2019-06-20T11:18:40.002Z,82.90
2019-06-20T11:20:34.774Z,83.73
2019-06-20T11:21:34.765Z,84.25
2019-06-20T11:22:34.780Z,84.89
2019-06-20T11:23:34.792Z,86.20
2019-06-20T11:24:34.788Z,86.82
2019-06-20T11:25:34.789Z,85.47
2019-06-20T11:26:34.797Z,83.92
2019-06-20T11:27:37.071Z,83.15
2019-06-20T11:28:34.814Z,82.57
2019-06-20T11:29:34.816Z,82.37
2019-06-20T11:30:48.118Z,82.08
2019-06-20T11:31:34.833Z,79.95
2019-06-20T11:32:34.878Z,80.05
2019-06-20T11:33:42.540Z,79.66
2019-06-20T11:35:39.554Z,79.08
2019-06-20T11:36:48.194Z,79.91
2019-06-20T11:38:43.015Z,79.27
2019-06-20T11:39:43.251Z,79.08
2019-06-20T11:41:48.990Z,80.15
2019-06-20T11:42:39.923Z,78.94
2019-06-20T11:43:40.034Z,78.79
2019-06-20T11:44:48.017Z,78.02
2019-06-20T11:46:43.896Z,78.21
2019-06-20T11:47:43.906Z,78.59
2019-06-20T11:48:43.872Z,78.31
2019-06-20T11:49:53.567Z,78.41
2019-06-20T11:51:49.424Z,78.89
2019-06-20T11:52:49.417Z,78.02
2019-06-20T11:53:49.393Z,77.53
2019-06-20T11:54:49.411Z,76.95
2019-06-20T11:55:49.392Z,75.60
2019-06-20T11:56:49.419Z,75.89
2019-06-20T11:57:49.425Z,75.21
2019-06-20T11:58:49.427Z,74.24
2019-06-20T11:59:49.432Z,73.66
2019-06-20T12:01:03.221Z,74.43
2019-06-20T12:01:49.428Z,75.02
2019-06-20T12:02:50.282Z,74.73
2019-06-20T12:03:49.461Z,74.73
2019-06-20T12:04:49.444Z,75.31
2019-06-20T12:05:49.760Z,75.40
2019-06-20T12:06:49.476Z,75.89
2019-06-20T12:07:50.021Z,75.70
2019-06-20T12:08:49.444Z,76.08
2019-06-20T12:09:49.500Z,76.18
2019-06-20T12:10:49.540Z,75.92
2019-06-20T12:11:49.465Z,74.96
2019-06-20T12:12:49.463Z,74.53
2019-06-20T12:13:49.534Z,74.28
2019-06-20T12:14:49.538Z,74.66
2019-06-20T12:15:49.525Z,74.86
2019-06-20T12:16:49.522Z,73.75
2019-06-20T12:17:49.612Z,73.21
2019-06-20T12:18:49.546Z,73.89
2019-06-20T12:19:49.513Z,73.89
2019-06-20T12:20:49.528Z,74.08
2019-06-20T12:21:49.511Z,74.34
2019-06-20T12:22:50.798Z,74.43
2019-06-20T12:23:49.542Z,74.43
2019-06-20T12:24:49.561Z,74.92
2019-06-20T12:25:49.532Z,75.02
2019-06-20T12:26:49.585Z,74.82
2019-06-20T12:27:49.804Z,74.43
2019-06-20T12:28:49.553Z,74.63
2019-06-20T12:29:49.558Z,74.43
2019-06-20T12:30:50.486Z,74.73
2019-06-20T12:31:49.588Z,74.57
2019-06-20T12:32:49.684Z,74.92
2019-06-20T12:33:49.618Z,75.79
2019-06-20T12:34:49.585Z,77.44
2019-06-20T12:35:49.589Z,78.27
2019-06-20T12:36:49.601Z,79.47
2019-06-20T12:37:50.094Z,78.94
2019-06-20T12:38:50.883Z,78.11
2019-06-20T12:39:49.626Z,77.24
2019-06-20T12:40:50.407Z,77.34
2019-06-20T12:41:50.283Z,77.53
2019-06-20T12:42:49.626Z,76.56
2019-06-20T12:43:49.630Z,76.56
2019-06-20T12:44:50.802Z,76.46
2019-06-20T12:45:49.667Z,76.56
2019-06-20T12:46:49.659Z,76.91
2019-06-20T12:47:50.133Z,77.40
2019-06-20T12:48:49.672Z,77.69
2019-06-20T12:49:50.708Z,77.98
2019-06-20T12:50:49.675Z,78.27
2019-06-20T12:51:49.693Z,77.50
2019-06-20T12:52:49.814Z,77.53
2019-06-20T12:53:50.928Z,77.44
2019-06-20T12:54:49.699Z,77.44
2019-06-20T12:55:50.774Z,78.21
2019-06-20T12:56:49.773Z,77.73
2019-06-20T12:57:49.794Z,78.21
2019-06-20T12:58:49.742Z,78.21
2019-06-20T12:59:49.740Z,78.11
2019-06-20T13:00:50.407Z,77.63
2019-06-20T13:01:51.048Z,78.31
2019-06-20T13:02:49.914Z,78.41
2019-06-20T13:03:50.549Z,77.24
2019-06-20T13:04:50.596Z,76.56
2019-06-20T13:05:49.758Z,76.95
2019-06-20T13:06:49.797Z,76.66
2019-06-20T13:07:50.279Z,77.14
2019-06-20T13:08:49.813Z,76.46
2019-06-20T13:09:49.776Z,77.14
2019-06-20T13:10:49.799Z,76.66
2019-06-20T13:11:49.820Z,76.70
2019-06-20T13:12:49.794Z,76.46
2019-06-20T13:13:49.821Z,75.60
2019-06-20T13:14:49.800Z,75.50
2019-06-20T13:15:49.814Z,76.56
2019-06-20T13:16:50.329Z,76.28
2019-06-20T13:17:49.957Z,76.37
2019-06-20T13:18:50.432Z,76.28
2019-06-20T13:19:49.880Z,76.56
2019-06-20T13:20:49.838Z,76.56
2019-06-20T13:21:49.875Z,76.28
2019-06-20T13:22:49.841Z,76.56
2019-06-20T13:23:49.855Z,77.05
2019-06-20T13:24:49.879Z,77.05
2019-06-20T13:25:49.867Z,76.56
2019-06-20T13:26:50.770Z,76.99
2019-06-20T13:27:50.582Z,77.24
2019-06-20T13:29:03.204Z,77.44
2019-06-20T13:29:49.886Z,77.24
2019-06-20T13:30:52.081Z,78.11
2019-06-20T13:32:02.078Z,78.11
2019-06-20T13:32:49.905Z,78.02
2019-06-20T13:33:49.933Z,77.67
2019-06-20T13:34:49.914Z,78.34
2019-06-20T13:35:50.839Z,77.86
2019-06-20T13:36:49.921Z,77.82
2019-06-20T13:37:50.132Z,78.05
2019-06-20T13:38:49.979Z,78.02
2019-06-20T13:39:50.236Z,78.34
2019-06-20T13:40:49.970Z,78.25
2019-06-20T13:41:50.292Z,78.05
2019-06-20T13:42:50.429Z,77.67
2019-06-20T13:43:49.982Z,77.34
2019-06-20T13:44:49.975Z,76.99
2019-06-20T13:45:50.021Z,77.05
2019-06-20T13:46:49.981Z,76.89
2019-06-20T13:47:50.057Z,77.44
2019-06-20T13:48:49.988Z,77.19
2019-06-20T13:49:50.200Z,77.28
2019-06-20T13:50:50.005Z,77.63
2019-06-20T13:51:50.278Z,77.73
2019-06-20T13:52:51.275Z,78.31
2019-06-20T13:53:50.665Z,78.21
2019-06-20T13:54:50.035Z,78.11
2019-06-20T13:55:50.390Z,77.86
2019-06-20T13:56:50.058Z,77.34
2019-06-20T13:57:50.091Z,77.57
2019-06-20T13:58:51.205Z,77.53
2019-06-20T13:59:52.745Z,77.73
2019-06-20T14:00:50.993Z,77.92
2019-06-20T14:02:03.168Z,78.15
2019-06-20T14:02:51.555Z,78.15
2019-06-20T14:03:50.799Z,78.25
2019-06-20T14:04:50.725Z,78.15
2019-06-20T14:05:51.551Z,77.92
2019-06-20T14:06:50.079Z,77.82
2019-06-20T14:07:53.416Z,78.31
2019-06-20T14:08:50.324Z,78.59
2019-06-20T14:09:51.110Z,78.89